createdAt,value
2018-08-09T01:00:36.931Z,53.69
2018-08-09T01:01:36.880Z,53.78
2018-08-09T01:02:36.909Z,53.69
2018-08-09T01:03:36.854Z,53.96
2018-08-09T01:04:36.842Z,54.58
2018-08-09T01:05:36.835Z,53.88
2018-08-09T01:06:36.820Z,54.16
2018-08-09T01:07:36.857Z,53.88
2018-08-09T01:08:36.799Z,54.08
2018-08-09T01:09:36.787Z,53.88
2018-08-09T01:10:36.777Z,54.28
2018-08-09T01:11:36.771Z,54.18
2018-08-09T01:12:36.797Z,53.98
2018-08-09T01:13:36.744Z,53.69
2018-08-09T01:14:36.736Z,53.58
2018-08-09T01:15:36.721Z,53.78
2018-08-09T01:16:36.712Z,53.78
2018-08-09T01:17:36.747Z,53.78
2018-08-09T01:18:36.690Z,53.49
2018-08-09T01:19:36.677Z,53.49
2018-08-09T01:20:36.665Z,53.69
2018-08-09T01:21:36.659Z,53.49
2018-08-09T01:22:36.689Z,53.49
2018-08-09T01:23:36.634Z,53.78
2018-08-09T01:24:36.628Z,53.58
2018-08-09T01:25:36.615Z,53.58
2018-08-09T01:26:36.601Z,53.58
2018-08-09T01:27:36.639Z,53.69
2018-08-09T01:28:36.583Z,53.58
2018-08-09T01:29:36.568Z,53.58
2018-08-09T01:30:36.563Z,53.69
2018-08-09T01:31:36.551Z,54.08
2018-08-09T01:32:36.581Z,54.28
2018-08-09T01:33:36.523Z,54.28
2018-08-09T01:34:36.511Z,53.71
2018-08-09T01:35:36.504Z,53.61
2018-08-09T01:36:36.491Z,53.88
2018-08-09T01:37:36.526Z,53.71
2018-08-09T01:38:36.468Z,53.69
2018-08-09T01:39:36.458Z,53.88
2018-08-09T01:40:36.446Z,53.69
2018-08-09T01:41:36.436Z,54.48
2018-08-09T01:42:36.474Z,54.08
2018-08-09T01:43:36.413Z,53.98
2018-08-09T01:44:36.406Z,54.38
2018-08-09T01:45:36.395Z,53.69
2018-08-09T01:46:36.381Z,53.58
2018-08-09T01:47:36.424Z,54.38
2018-08-09T01:48:36.358Z,54.38
2018-08-09T01:49:36.348Z,53.88
2018-08-09T01:50:36.346Z,53.58
2018-08-09T01:51:36.328Z,53.88
2018-08-09T01:52:36.361Z,54.18
2018-08-09T01:53:36.304Z,54.18
2018-08-09T01:54:36.295Z,54.18
2018-08-09T01:55:36.281Z,54.21
2018-08-09T01:56:36.272Z,54.11
2018-08-09T01:57:36.314Z,53.51
2018-08-09T01:58:36.251Z,53.71
2018-08-09T01:59:36.238Z,54.21
2018-08-09T02:00:36.235Z,54.11
2018-08-09T02:01:36.219Z,54.01
2018-08-09T02:02:36.250Z,54.01
2018-08-09T02:03:36.194Z,53.91
2018-08-09T02:04:36.206Z,55.00
2018-08-09T02:05:36.175Z,54.71
2018-08-09T02:06:36.160Z,55.30
2018-08-09T02:07:36.201Z,54.90
2018-08-09T02:08:36.141Z,55.00
2018-08-09T02:09:36.131Z,55.43
2018-08-09T02:10:36.116Z,55.53
2018-08-09T02:11:36.106Z,55.73
2018-08-09T02:12:36.095Z,55.93
2018-08-09T02:13:36.127Z,56.23
2018-08-09T02:14:36.071Z,56.62
2018-08-09T02:15:36.062Z,56.62
2018-08-09T02:16:36.059Z,56.35
2018-08-09T02:17:36.041Z,56.95
2018-08-09T02:18:36.073Z,56.15
2018-08-09T02:19:36.027Z,57.54
2018-08-09T02:20:36.007Z,57.94
2018-08-09T02:21:35.999Z,57.75
2018-08-09T02:22:35.983Z,58.37
2018-08-09T02:23:36.022Z,58.17
2018-08-09T02:24:35.976Z,58.37
2018-08-09T02:25:35.955Z,58.89
2018-08-09T02:26:35.941Z,59.09
2018-08-09T02:27:35.934Z,58.40
2018-08-09T02:28:35.965Z,59.06
2018-08-09T02:29:35.908Z,59.27
2018-08-09T02:30:35.897Z,57.97
2018-08-09T02:31:35.887Z,58.27
2018-08-09T02:32:35.877Z,59.06
2018-08-09T02:33:35.909Z,59.09
2018-08-09T02:34:35.872Z,59.59
2018-08-09T02:35:35.850Z,58.80
2018-08-09T02:36:35.831Z,58.70
2018-08-09T02:37:35.819Z,58.59
2018-08-09T02:38:35.874Z,58.59
2018-08-09T02:39:35.798Z,59.09
2018-08-09T02:40:35.791Z,59.19
2018-08-09T02:41:35.782Z,59.09
2018-08-09T02:42:35.771Z,59.19
2018-08-09T02:43:35.799Z,59.19
2018-08-09T02:44:35.744Z,59.19
2018-08-09T02:45:35.732Z,59.09
2018-08-09T02:46:35.770Z,58.67
2018-08-09T02:47:35.709Z,58.89
2018-08-09T02:48:35.751Z,59.36
2018-08-09T02:49:35.690Z,58.87
2018-08-09T02:50:35.678Z,58.97
2018-08-09T02:51:35.670Z,59.56
2018-08-09T02:52:35.654Z,59.17
2018-08-09T02:53:35.702Z,59.06
2018-08-09T02:54:35.637Z,58.47
2018-08-09T02:55:35.643Z,59.06
2018-08-09T02:56:35.611Z,59.17
2018-08-09T02:57:35.599Z,58.97
2018-08-09T02:58:35.635Z,58.76
2018-08-09T02:59:35.578Z,59.36
2018-08-09T03:00:35.598Z,58.67
2018-08-09T03:01:35.556Z,58.47
2018-08-09T03:02:35.548Z,59.27
2018-08-09T03:03:35.578Z,58.84
2018-08-09T03:04:35.524Z,58.67
2018-08-09T03:05:35.517Z,58.97
2018-08-09T03:06:35.501Z,58.76
2018-08-09T03:07:35.493Z,58.94
2018-08-09T03:08:35.525Z,59.06
2018-08-09T03:09:35.468Z,59.06
2018-08-09T03:10:35.458Z,58.87
2018-08-09T03:11:35.447Z,59.06
2018-08-09T03:12:35.435Z,59.04
2018-08-09T03:13:35.473Z,58.94
2018-08-09T03:14:35.420Z,58.64
2018-08-09T03:15:35.403Z,59.53
2018-08-09T03:16:35.393Z,58.94
2018-08-09T03:17:35.381Z,59.36
2018-08-09T03:18:35.414Z,59.53
2018-08-09T03:19:35.359Z,60.06
2018-08-09T03:20:35.354Z,59.74
2018-08-09T03:21:35.393Z,59.77
2018-08-09T03:22:35.325Z,59.66
2018-08-09T03:23:35.372Z,59.77
2018-08-09T03:24:35.305Z,60.36
2018-08-09T03:25:35.293Z,60.26
2018-08-09T03:26:35.287Z,59.86
2018-08-09T03:27:35.269Z,60.06
2018-08-09T03:28:35.338Z,60.66
2018-08-09T03:29:35.250Z,59.96
2018-08-09T03:30:35.237Z,60.06
2018-08-09T03:31:35.234Z,60.26
2018-08-09T03:32:35.216Z,60.36
2018-08-09T03:33:35.253Z,60.76
2018-08-09T03:34:35.205Z,60.76
2018-08-09T03:35:35.181Z,60.96
2018-08-09T03:36:35.169Z,60.66
2018-08-09T03:37:35.163Z,61.19
2018-08-09T03:38:35.195Z,61.09
2018-08-09T03:39:35.137Z,61.39
2018-08-09T03:40:35.127Z,61.29
2018-08-09T03:41:35.117Z,61.79
2018-08-09T03:42:35.109Z,61.29
2018-08-09T03:43:35.149Z,61.19
2018-08-09T03:44:35.085Z,61.49
2018-08-09T03:45:35.076Z,61.49
2018-08-09T03:46:35.062Z,61.46
2018-08-09T03:47:35.055Z,61.25
2018-08-09T03:48:35.039Z,61.46
2018-08-09T03:49:35.082Z,61.16
2018-08-09T03:50:35.021Z,61.06
2018-08-09T03:51:35.011Z,61.16
2018-08-09T03:52:34.998Z,61.85
2018-08-09T03:53:34.984Z,61.16
2018-08-09T03:54:35.025Z,61.46
2018-08-09T03:55:34.963Z,61.66
2018-08-09T03:56:34.951Z,61.16
2018-08-09T03:57:34.941Z,61.69
2018-08-09T03:58:34.936Z,62.48
2018-08-09T03:59:34.985Z,62.78
2018-08-09T04:00:34.912Z,62.01
2018-08-09T04:01:34.897Z,62.48
2018-08-09T04:02:34.887Z,62.08
2018-08-09T04:03:34.875Z,63.51
2018-08-09T04:04:34.912Z,63.11
2018-08-09T04:05:34.854Z,63.61
2018-08-09T04:06:34.845Z,63.51
2018-08-09T04:07:34.859Z,63.41
2018-08-09T04:08:34.821Z,63.11
2018-08-09T04:09:34.864Z,63.21
2018-08-09T04:10:34.802Z,63.31
2018-08-09T04:11:34.790Z,63.11
2018-08-09T04:12:34.779Z,63.41
2018-08-09T04:13:34.768Z,63.11
2018-08-09T04:14:34.802Z,63.21
2018-08-09T04:15:34.746Z,63.21
2018-08-09T04:16:34.734Z,63.41
2018-08-09T04:17:34.724Z,63.21
2018-08-09T04:18:34.711Z,62.91
2018-08-09T04:19:34.748Z,63.61
2018-08-09T04:20:34.694Z,64.01
2018-08-09T04:21:34.680Z,63.64
2018-08-09T04:22:34.668Z,63.34
2018-08-09T04:23:34.658Z,63.84
2018-08-09T04:24:34.690Z,63.84
2018-08-09T04:25:34.643Z,64.34
2018-08-09T04:26:34.663Z,64.04
2018-08-09T04:27:34.612Z,64.14
2018-08-09T04:28:34.600Z,63.74
2018-08-09T04:29:34.635Z,63.74
2018-08-09T04:30:34.578Z,63.84
2018-08-09T04:31:34.569Z,64.01
2018-08-09T04:32:34.554Z,63.74
2018-08-09T04:33:34.545Z,64.14
2018-08-09T04:34:34.588Z,63.74
2018-08-09T04:35:34.522Z,63.94
2018-08-09T04:36:34.510Z,63.74
2018-08-09T04:37:34.499Z,64.04
2018-08-09T04:38:34.488Z,64.24
2018-08-09T04:39:34.524Z,64.24
2018-08-09T04:40:34.471Z,64.04
2018-08-09T04:41:34.456Z,64.04
2018-08-09T04:42:34.449Z,63.74
2018-08-09T04:43:34.433Z,63.74
2018-08-09T04:44:34.481Z,64.14
2018-08-09T04:45:34.413Z,63.44
2018-08-09T04:46:34.399Z,62.15
2018-08-09T04:47:34.388Z,62.12
2018-08-09T04:48:34.383Z,62.91
2018-08-09T04:49:34.419Z,62.51
2018-08-09T04:50:34.356Z,62.54
2018-08-09T04:51:34.352Z,62.94
2018-08-09T04:52:34.350Z,62.54
2018-08-09T04:53:34.330Z,62.21
2018-08-09T04:54:34.358Z,62.01
2018-08-09T04:55:34.312Z,62.74
2018-08-09T04:56:34.289Z,61.91
2018-08-09T04:57:34.282Z,62.61
2018-08-09T04:58:34.271Z,62.12
2018-08-09T04:59:34.306Z,61.91
2018-08-09T05:00:34.246Z,62.12
2018-08-09T05:01:34.241Z,62.31
2018-08-09T05:02:34.226Z,62.21
2018-08-09T05:03:34.216Z,62.12
2018-08-09T05:04:34.245Z,62.12
2018-08-09T05:05:34.237Z,62.31
2018-08-09T05:06:34.184Z,62.71
2018-08-09T05:07:34.172Z,62.71
2018-08-09T05:08:34.157Z,62.24
2018-08-09T05:09:34.150Z,62.21
2018-08-09T05:10:34.183Z,62.31
2018-08-09T05:11:34.126Z,62.41
2018-08-09T05:12:34.116Z,63.81
2018-08-09T05:13:34.103Z,63.31
2018-08-09T05:14:34.093Z,63.31
2018-08-09T05:15:34.131Z,63.14
2018-08-09T05:16:34.072Z,63.31
2018-08-09T05:17:34.061Z,63.14
2018-08-09T05:18:34.052Z,63.44
2018-08-09T05:19:34.039Z,63.94
2018-08-09T05:20:34.074Z,63.84
2018-08-09T05:21:34.017Z,64.17
2018-08-09T05:22:34.016Z,64.27
2018-08-09T05:23:33.999Z,63.97
2018-08-09T05:24:33.983Z,64.17
2018-08-09T05:25:34.021Z,64.07
2018-08-09T05:26:33.962Z,64.27
2018-08-09T05:27:33.953Z,64.17
2018-08-09T05:28:33.941Z,64.07
2018-08-09T05:29:33.929Z,64.07
2018-08-09T05:30:33.964Z,64.04
2018-08-09T05:31:33.906Z,63.97
2018-08-09T05:32:33.902Z,63.87
2018-08-09T05:33:33.888Z,64.34
2018-08-09T05:34:33.898Z,64.14
2018-08-09T05:35:33.905Z,64.44
2018-08-09T05:36:33.853Z,64.74
2018-08-09T05:37:33.840Z,63.97
2018-08-09T05:38:33.828Z,64.24
2018-08-09T05:39:33.820Z,64.17
2018-08-09T05:40:33.855Z,64.37
2018-08-09T05:41:33.795Z,64.54
2018-08-09T05:42:33.785Z,64.14
2018-08-09T05:43:33.773Z,64.14
2018-08-09T05:44:33.765Z,64.27
2018-08-09T05:45:33.803Z,63.97
2018-08-09T05:46:33.751Z,63.87
2018-08-09T05:47:33.729Z,64.17
2018-08-09T05:48:33.732Z,64.17
2018-08-09T05:49:33.718Z,64.87
2018-08-09T05:50:33.742Z,64.80
2018-08-09T05:51:33.692Z,64.90
2018-08-09T05:52:33.700Z,64.70
2018-08-09T05:53:33.663Z,64.20
2018-08-09T05:54:33.655Z,64.50
2018-08-09T05:55:33.687Z,64.40
2018-08-09T05:56:33.634Z,64.80
2018-08-09T05:57:33.638Z,64.57
2018-08-09T05:58:33.662Z,64.67
2018-08-09T05:59:33.598Z,64.67
2018-08-09T06:00:33.588Z,64.27
2018-08-09T06:01:33.622Z,63.84
2018-08-09T06:02:33.567Z,63.64
2018-08-09T06:03:33.555Z,63.84
2018-08-09T06:04:33.544Z,63.94
2018-08-09T06:05:33.582Z,63.84
2018-08-09T06:06:33.568Z,63.74
2018-08-09T06:07:33.513Z,63.84
2018-08-09T06:08:33.503Z,62.21
2018-08-09T06:09:33.488Z,64.14
2018-08-09T06:10:33.481Z,63.74
2018-08-09T06:11:33.515Z,63.74
2018-08-09T06:12:33.458Z,63.34
2018-08-09T06:13:33.522Z,63.31
2018-08-09T06:14:33.434Z,63.41
2018-08-09T06:15:33.421Z,63.51
2018-08-09T06:16:33.484Z,62.12
2018-08-09T06:17:33.403Z,62.48
2018-08-09T06:18:33.389Z,62.38
2018-08-09T06:19:33.382Z,61.25
2018-08-09T06:20:33.370Z,60.83
2018-08-09T06:21:33.402Z,60.53
2018-08-09T06:22:33.348Z,60.83
2018-08-09T06:23:33.341Z,60.63
2018-08-09T06:24:33.326Z,60.83
2018-08-09T06:25:33.314Z,60.73
2018-08-09T06:26:33.350Z,61.23
2018-08-09T06:27:33.297Z,60.93
2018-08-09T06:28:33.286Z,61.13
2018-08-09T06:29:33.271Z,61.53
2018-08-09T06:30:33.271Z,61.13
2018-08-09T06:31:33.294Z,61.13
2018-08-09T06:32:33.240Z,60.60
2018-08-09T06:33:33.310Z,60.30
2018-08-09T06:34:33.214Z,59.70
2018-08-09T06:35:33.203Z,59.51
2018-08-09T06:36:33.239Z,60.30
2018-08-09T06:37:33.186Z,60.50
2018-08-09T06:38:33.174Z,60.11
2018-08-09T06:39:33.160Z,59.41
2018-08-09T06:40:33.154Z,58.39
2018-08-09T06:41:33.197Z,59.15
2018-08-09T06:42:33.131Z,59.12
2018-08-09T06:43:33.121Z,58.33
2018-08-09T06:44:33.106Z,57.48
2018-08-09T06:45:33.097Z,56.53
2018-08-09T06:46:33.083Z,54.60
2018-08-09T06:47:33.164Z,52.86
2018-08-09T06:48:33.069Z,51.82
2018-08-09T06:49:33.052Z,51.25
2018-08-09T06:50:33.051Z,52.09
2018-08-09T06:51:33.029Z,53.60
2018-08-09T06:52:33.064Z,53.73
2018-08-09T06:53:33.006Z,53.60
2018-08-09T06:54:33.000Z,53.11
2018-08-09T06:55:32.984Z,52.86
2018-08-09T06:56:32.973Z,53.50
2018-08-09T06:57:33.013Z,53.53
2018-08-09T06:58:32.951Z,53.19
2018-08-09T06:59:32.939Z,54.70
2018-08-09T07:00:32.930Z,55.19
2018-08-09T07:01:32.920Z,55.42
2018-08-09T07:02:32.951Z,55.29
2018-08-09T07:03:32.895Z,55.40
2018-08-09T07:04:32.886Z,55.40
2018-08-09T07:05:32.872Z,55.27
2018-08-09T07:06:32.863Z,54.40
2018-08-09T07:07:32.896Z,54.60
2018-08-09T07:08:32.840Z,54.82
2018-08-09T07:09:32.829Z,54.63
2018-08-09T07:10:32.817Z,55.32
2018-08-09T07:11:32.808Z,55.72
2018-08-09T07:12:32.841Z,55.79
2018-08-09T07:13:32.789Z,55.32
2018-08-09T07:14:32.773Z,55.10
2018-08-09T07:15:32.763Z,53.91
2018-08-09T07:16:32.762Z,53.58
2018-08-09T07:17:32.787Z,53.75
2018-08-09T07:18:32.732Z,53.45
2018-08-09T07:19:32.724Z,52.84
2018-08-09T07:20:32.707Z,53.03
2018-08-09T07:21:32.698Z,52.86
2018-08-09T07:22:32.733Z,53.03
2018-08-09T07:23:32.676Z,53.16
2018-08-09T07:24:32.671Z,53.43
2018-08-09T07:25:32.655Z,52.94
2018-08-09T07:26:32.720Z,52.54
2018-08-09T07:27:32.718Z,51.94
2018-08-09T07:28:32.624Z,52.12
2018-08-09T07:29:32.616Z,51.52
2018-08-09T07:30:32.601Z,51.42
2018-08-09T07:31:32.589Z,50.73
2018-08-09T07:32:32.625Z,50.93
2018-08-09T07:33:32.567Z,50.71
2018-08-09T07:34:32.556Z,50.90
2018-08-09T07:35:32.543Z,50.31
2018-08-09T07:36:32.574Z,50.41
2018-08-09T07:37:32.583Z,50.48
2018-08-09T07:38:32.511Z,50.38
2018-08-09T07:39:32.611Z,50.31
2018-08-09T07:40:32.487Z,50.09
2018-08-09T07:41:32.476Z,49.89
2018-08-09T07:42:32.516Z,49.40
2018-08-09T07:43:32.469Z,49.89
2018-08-09T07:44:32.443Z,49.79
2018-08-09T07:45:32.434Z,49.89
2018-08-09T07:46:32.428Z,50.26
2018-08-09T07:47:32.468Z,49.66
2018-08-09T07:48:32.425Z,50.16
2018-08-09T07:49:32.387Z,48.85
2018-08-09T07:50:32.375Z,49.25
2018-08-09T07:51:32.372Z,50.12
2018-08-09T07:52:32.412Z,49.82
2018-08-09T07:53:32.343Z,50.21
2018-08-09T07:54:32.351Z,48.53
2018-08-09T07:55:32.321Z,48.71
2018-08-09T07:56:32.314Z,49.01
2018-08-09T07:57:32.365Z,48.71
2018-08-09T07:58:32.290Z,48.51
2018-08-09T07:59:32.278Z,48.78
2018-08-09T08:00:32.274Z,49.08
2018-08-09T08:01:32.258Z,48.58
2018-08-09T08:02:32.326Z,48.66
2018-08-09T08:03:32.239Z,48.56
2018-08-09T08:04:32.228Z,48.66
2018-08-09T08:05:32.214Z,47.97
2018-08-09T08:06:32.208Z,48.46
2018-08-09T08:07:32.197Z,48.56
2018-08-09T08:08:32.310Z,47.67
2018-08-09T08:09:32.178Z,47.06
2018-08-09T08:10:32.165Z,47.97
2018-08-09T08:11:32.171Z,47.16
2018-08-09T08:12:32.147Z,48.54
2018-08-09T08:13:32.186Z,48.75
2018-08-09T08:14:32.127Z,48.46
2018-08-09T08:15:32.110Z,48.46
2018-08-09T08:16:32.108Z,48.46
2018-08-09T08:17:32.085Z,48.44
2018-08-09T08:18:32.119Z,49.35
2018-08-09T08:19:32.065Z,48.66
2018-08-09T08:20:32.052Z,48.63
2018-08-09T08:21:32.041Z,49.22
2018-08-09T08:22:32.034Z,49.43
2018-08-09T08:23:32.070Z,48.75
2018-08-09T08:24:32.008Z,48.96
2018-08-09T08:25:31.998Z,48.54
2018-08-09T08:26:31.986Z,49.13
2018-08-09T08:27:31.976Z,49.13
2018-08-09T08:28:32.019Z,48.83
2018-08-09T08:29:31.953Z,48.93
2018-08-09T08:30:31.948Z,49.13
2018-08-09T08:31:31.938Z,48.93
2018-08-09T08:32:31.942Z,49.13
2018-08-09T08:33:32.006Z,48.34
2018-08-09T08:34:31.920Z,48.75
2018-08-09T08:35:31.944Z,49.13
2018-08-09T08:36:31.891Z,48.44
2018-08-09T08:37:31.879Z,47.94
2018-08-09T08:38:32.057Z,47.16
2018-08-09T08:39:31.849Z,48.14
2018-08-09T08:40:31.841Z,47.06
2018-08-09T08:41:31.905Z,46.74
2018-08-09T08:42:31.817Z,47.35
2018-08-09T08:43:31.859Z,48.14
2018-08-09T08:44:31.799Z,47.35
2018-08-09T08:45:31.792Z,48.04
2018-08-09T08:46:31.783Z,47.63
2018-08-09T08:47:31.849Z,47.33
2018-08-09T08:48:31.798Z,47.13
2018-08-09T08:49:31.848Z,47.01
2018-08-09T08:50:31.731Z,46.72
2018-08-09T08:51:31.725Z,47.31
2018-08-09T08:52:31.711Z,47.21
2018-08-09T08:53:31.742Z,46.42
2018-08-09T08:54:31.688Z,46.81
2018-08-09T08:55:31.682Z,47.21
2018-08-09T08:56:31.664Z,46.81
2018-08-09T08:57:31.661Z,46.99
2018-08-09T08:58:31.691Z,46.59
2018-08-09T08:59:31.645Z,46.42
2018-08-09T09:00:31.625Z,46.52
2018-08-09T09:01:31.630Z,46.72
2018-08-09T09:02:31.602Z,47.21
2018-08-09T09:03:31.654Z,47.21
2018-08-09T09:04:31.582Z,47.21
2018-08-09T09:05:31.568Z,47.21
2018-08-09T09:06:31.556Z,47.21
2018-08-09T09:07:31.545Z,47.21
2018-08-09T09:08:31.536Z,47.19
2018-08-09T09:09:31.568Z,47.58
2018-08-09T09:10:31.514Z,47.48
2018-08-09T09:11:31.506Z,46.89
2018-08-09T09:12:31.492Z,46.99
2018-08-09T09:13:31.483Z,46.99
2018-08-09T09:14:31.525Z,47.09
2018-08-09T09:15:31.463Z,47.09
2018-08-09T09:16:31.451Z,46.89
2018-08-09T09:17:31.441Z,47.01
2018-08-09T09:18:31.443Z,47.31
2018-08-09T09:19:31.468Z,47.31
2018-08-09T09:20:31.410Z,48.00
2018-08-09T09:21:31.396Z,47.90
2018-08-09T09:22:31.384Z,48.61
2018-08-09T09:23:31.387Z,48.12
2018-08-09T09:24:31.413Z,48.39
2018-08-09T09:25:31.350Z,48.51
2018-08-09T09:26:31.352Z,48.29
2018-08-09T09:27:31.332Z,48.59
2018-08-09T09:28:31.320Z,48.51
2018-08-09T09:29:31.354Z,48.91
2018-08-09T09:30:31.298Z,49.01
2018-08-09T09:31:31.312Z,49.08
2018-08-09T09:32:31.302Z,48.88
2018-08-09T09:33:31.311Z,48.79
2018-08-09T09:34:31.324Z,48.37
2018-08-09T09:35:31.245Z,48.76
2018-08-09T09:36:31.249Z,48.07
2018-08-09T09:37:31.228Z,47.66
2018-08-09T09:38:31.232Z,47.56
2018-08-09T09:39:31.254Z,47.16
2018-08-09T09:40:31.199Z,47.95
2018-08-09T09:41:31.258Z,47.53
2018-08-09T09:42:31.169Z,46.75
2018-08-09T09:43:31.163Z,46.72
2018-08-09T09:44:31.229Z,46.84
2018-08-09T09:45:31.137Z,46.65
2018-08-09T09:46:31.135Z,47.41
2018-08-09T09:47:31.120Z,46.82
2018-08-09T09:48:31.122Z,47.02
2018-08-09T09:49:31.152Z,47.51
2018-08-09T09:50:31.084Z,47.51
2018-08-09T09:51:31.074Z,47.31
2018-08-09T09:52:31.062Z,46.90
2018-08-09T09:53:31.051Z,46.90
2018-08-09T09:54:31.089Z,46.70
2018-08-09T09:55:31.044Z,46.90
2018-08-09T09:56:31.024Z,46.48
2018-08-09T09:57:31.007Z,46.88
2018-08-09T09:58:30.998Z,46.56
2018-08-09T09:59:31.045Z,45.38
2018-08-09T10:00:30.976Z,46.17
2018-08-09T10:01:30.965Z,45.57
2018-08-09T10:02:30.952Z,45.67
2018-08-09T10:03:30.942Z,45.48
2018-08-09T10:04:30.978Z,45.48
2018-08-09T10:05:30.920Z,45.97
2018-08-09T10:06:30.911Z,45.87
2018-08-09T10:07:30.902Z,45.36
2018-08-09T10:08:30.891Z,45.85
2018-08-09T10:09:30.923Z,45.45
2018-08-09T10:10:30.933Z,45.55
2018-08-09T10:11:30.869Z,45.55
2018-08-09T10:12:30.845Z,45.95
2018-08-09T10:13:30.841Z,45.65
2018-08-09T10:14:30.870Z,45.55
2018-08-09T10:15:30.818Z,44.16
2018-08-09T10:16:30.803Z,43.96
2018-08-09T10:17:30.793Z,43.86
2018-08-09T10:18:30.788Z,44.13
2018-08-09T10:19:30.817Z,43.37
2018-08-09T10:20:30.762Z,42.76
2018-08-09T10:21:30.753Z,42.66
2018-08-09T10:22:30.741Z,42.84
2018-08-09T10:23:30.734Z,42.86
2018-08-09T10:24:30.717Z,42.65
2018-08-09T10:25:30.751Z,42.35
2018-08-09T10:26:30.697Z,43.23
2018-08-09T10:27:30.691Z,43.23
2018-08-09T10:28:30.676Z,41.66
2018-08-09T10:29:30.668Z,41.56
2018-08-09T10:30:30.700Z,40.08
2018-08-09T10:31:30.646Z,40.29
2018-08-09T10:32:30.633Z,40.76
2018-08-09T10:33:30.622Z,39.88
2018-08-09T10:34:30.613Z,39.98
2018-08-09T10:35:30.745Z,39.78
2018-08-09T10:36:30.607Z,40.08
2018-08-09T10:37:30.581Z,40.66
2018-08-09T10:38:30.578Z,39.98
2018-08-09T10:39:30.561Z,38.60
2018-08-09T10:40:30.593Z,39.00
2018-08-09T10:41:30.536Z,38.12
2018-08-09T10:42:30.525Z,38.20
2018-08-09T10:43:30.518Z,38.10
2018-08-09T10:44:30.510Z,37.81
2018-08-09T10:45:30.539Z,38.20
2018-08-09T10:46:30.488Z,38.20
2018-08-09T10:47:30.488Z,38.59
2018-08-09T10:48:30.462Z,38.28
2018-08-09T10:49:30.470Z,38.37
2018-08-09T10:50:30.488Z,38.08
2018-08-09T10:51:30.433Z,38.86
2018-08-09T10:52:30.423Z,37.39
2018-08-09T10:53:30.409Z,37.88
2018-08-09T10:54:30.398Z,37.88
2018-08-09T10:55:30.440Z,37.98
2018-08-09T10:56:30.391Z,38.08
2018-08-09T10:57:30.366Z,38.57
2018-08-09T10:58:30.451Z,38.88
2018-08-09T10:59:30.346Z,38.29
2018-08-09T11:00:30.382Z,38.57
2018-08-09T11:01:30.326Z,39.07
2018-08-09T11:02:30.319Z,38.57
2018-08-09T11:03:30.305Z,38.37
2018-08-09T11:04:30.302Z,37.69
2018-08-09T11:05:30.326Z,37.88
2018-08-09T11:06:30.273Z,38.35
2018-08-09T11:07:30.308Z,37.87
2018-08-09T11:08:30.264Z,37.27
2018-08-09T11:09:30.242Z,36.98
2018-08-09T11:10:30.238Z,36.47
2018-08-09T11:11:30.224Z,36.40
2018-08-09T11:12:30.254Z,37.06
2018-08-09T11:13:30.204Z,36.49
2018-08-09T11:14:30.189Z,36.38
2018-08-09T11:15:30.179Z,36.96
2018-08-09T11:16:30.175Z,36.79
2018-08-09T11:17:30.203Z,36.79
2018-08-09T11:18:30.146Z,36.88
2018-08-09T11:19:30.137Z,36.69
2018-08-09T11:20:30.129Z,37.37
2018-08-09T11:21:30.116Z,36.98
2018-08-09T11:22:30.155Z,36.69
2018-08-09T11:23:30.095Z,37.08
2018-08-09T11:24:30.084Z,36.96
2018-08-09T11:25:30.073Z,36.38
2018-08-09T11:26:30.067Z,37.26
2018-08-09T11:27:30.099Z,37.16
2018-08-09T11:28:30.051Z,35.97
2018-08-09T11:29:30.030Z,36.65
2018-08-09T11:30:30.020Z,36.73
2018-08-09T11:31:30.010Z,36.91
2018-08-09T11:32:30.000Z,35.55
2018-08-09T11:33:30.041Z,35.75
2018-08-09T11:34:29.979Z,36.54
2018-08-09T11:35:29.968Z,36.93
2018-08-09T11:36:29.957Z,36.83
2018-08-09T11:37:29.946Z,37.22
2018-08-09T11:38:29.979Z,36.73
2018-08-09T11:39:29.937Z,36.63
2018-08-09T11:40:29.917Z,35.56
2018-08-09T11:41:29.903Z,35.85
2018-08-09T11:42:29.895Z,35.75
2018-08-09T11:43:29.947Z,35.74
2018-08-09T11:44:29.874Z,34.84
2018-08-09T11:45:29.874Z,34.63
2018-08-09T11:46:29.855Z,34.42
2018-08-09T11:47:29.842Z,32.96
2018-08-09T11:48:29.877Z,33.15
2018-08-09T11:49:29.833Z,32.87
2018-08-09T11:50:29.811Z,32.29
2018-08-09T11:51:29.800Z,32.29
2018-08-09T11:52:29.800Z,33.17
2018-08-09T11:53:29.823Z,32.68
2018-08-09T11:54:29.769Z,33.26
2018-08-09T11:55:29.770Z,33.17
2018-08-09T11:56:29.861Z,32.39
2018-08-09T11:57:29.740Z,32.79
2018-08-09T11:58:29.783Z,33.09
2018-08-09T11:59:29.718Z,32.70
2018-08-09T12:00:29.710Z,32.68
2018-08-09T12:01:29.746Z,32.97
2018-08-09T12:02:29.689Z,32.08
2018-08-09T12:03:29.752Z,32.47
2018-08-09T12:04:29.682Z,32.18
2018-08-09T12:05:29.657Z,33.23
2018-08-09T12:06:29.653Z,32.26
2018-08-09T12:07:29.634Z,32.45
2018-08-09T12:08:29.670Z,32.55
2018-08-09T12:09:29.664Z,33.04
2018-08-09T12:10:29.606Z,32.65
2018-08-09T12:11:29.611Z,33.02
2018-08-09T12:12:29.590Z,32.23
2018-08-09T12:13:29.725Z,32.31
2018-08-09T12:14:29.566Z,31.63
2018-08-09T12:15:29.557Z,31.71
2018-08-09T12:16:29.543Z,31.81
2018-08-09T12:17:29.564Z,31.40
2018-08-09T12:18:29.568Z,31.37
2018-08-09T12:19:29.515Z,30.50
2018-08-09T12:20:29.503Z,30.88
2018-08-09T12:21:29.496Z,30.98
2018-08-09T12:22:29.483Z,31.08
2018-08-09T12:23:29.521Z,30.95
2018-08-09T12:24:29.465Z,30.15
2018-08-09T12:25:29.457Z,29.85
2018-08-09T12:26:29.450Z,30.15
2018-08-09T12:27:29.440Z,29.36
2018-08-09T12:28:29.472Z,29.34
2018-08-09T12:29:29.420Z,28.86
2018-08-09T12:30:29.448Z,29.26
2018-08-09T12:31:29.396Z,29.87
2018-08-09T12:32:29.386Z,30.94
2018-08-09T12:33:29.426Z,29.87
2018-08-09T12:34:29.365Z,30.76
2018-08-09T12:35:29.359Z,31.15
2018-08-09T12:36:29.367Z,31.44
2018-08-09T12:37:29.334Z,30.40
2018-08-09T12:38:29.368Z,31.08
2018-08-09T12:39:29.318Z,31.48
2018-08-09T12:40:29.305Z,31.98
2018-08-09T12:41:29.296Z,31.79
2018-08-09T12:42:29.286Z,31.79
2018-08-09T12:43:29.318Z,31.88
2018-08-09T12:44:29.270Z,31.81
2018-08-09T12:45:29.264Z,32.50
2018-08-09T12:46:29.243Z,33.20
2018-08-09T12:47:29.234Z,33.22
2018-08-09T12:48:29.269Z,33.62
2018-08-09T12:49:29.213Z,34.61
2018-08-09T12:50:29.239Z,34.65
2018-08-09T12:51:29.301Z,35.81
2018-08-09T12:52:29.196Z,37.05
2018-08-09T12:53:29.230Z,39.21
2018-08-09T12:54:29.162Z,40.62
2018-08-09T12:55:29.152Z,41.96
2018-08-09T12:56:29.149Z,43.09
2018-08-09T12:57:29.135Z,43.90
2018-08-09T12:58:29.170Z,44.71
2018-08-09T12:59:29.109Z,45.62
2018-08-09T13:00:29.099Z,46.04
2018-08-09T13:01:29.089Z,47.56
2018-08-09T13:02:29.129Z,46.88
2018-08-09T13:03:29.114Z,47.69
2018-08-09T13:04:29.059Z,48.38
2018-08-09T13:05:29.054Z,49.00
2018-08-09T13:06:29.035Z,49.29
2018-08-09T13:07:29.029Z,49.00
2018-08-09T13:08:29.104Z,49.99
2018-08-09T13:09:29.003Z,50.90
2018-08-09T13:10:28.997Z,50.01
2018-08-09T13:11:29.033Z,51.20
2018-08-09T13:12:28.974Z,51.79
2018-08-09T13:13:29.011Z,52.78
2018-08-09T13:14:28.964Z,54.89
2018-08-09T13:15:28.945Z,56.11
2018-08-09T13:16:28.941Z,57.53
2018-08-09T13:17:28.919Z,58.02
2018-08-09T13:18:28.959Z,58.61
2018-08-09T13:19:28.900Z,57.95
2018-08-09T13:20:28.885Z,58.15
2018-08-09T13:21:28.876Z,57.06
2018-08-09T13:22:28.866Z,56.09
2018-08-09T13:23:28.938Z,56.76
2018-08-09T13:24:28.841Z,56.49
2018-08-09T13:25:28.832Z,56.88
2018-08-09T13:26:28.826Z,56.06
2018-08-09T13:27:28.813Z,56.36
2018-08-09T13:28:28.863Z,55.66
2018-08-09T13:29:28.796Z,56.16
2018-08-09T13:30:28.782Z,55.66
2018-08-09T13:31:28.766Z,55.57
2018-08-09T13:32:28.755Z,55.54
2018-08-09T13:33:28.795Z,55.94
2018-08-09T13:34:28.743Z,55.24
2018-08-09T13:35:28.724Z,54.15
2018-08-09T13:36:28.712Z,54.15
2018-08-09T13:37:28.704Z,53.33
2018-08-09T13:38:28.742Z,52.54
2018-08-09T13:39:28.680Z,52.12
2018-08-09T13:40:28.672Z,50.83
2018-08-09T13:41:28.682Z,50.93
2018-08-09T13:42:28.655Z,51.03
2018-08-09T13:43:28.690Z,50.81
2018-08-09T13:44:28.632Z,51.10
2018-08-09T13:45:28.616Z,50.60
2018-08-09T13:46:28.608Z,50.31
2018-08-09T13:47:28.596Z,50.21
2018-08-09T13:48:28.588Z,51.00
2018-08-09T13:49:28.623Z,50.01
2018-08-09T13:50:28.590Z,50.88
2018-08-09T13:51:28.556Z,48.90
2018-08-09T13:52:28.540Z,48.43